Terminal Aerodrome Forecast
Issued by NWS

Home | Current Version | Previous Version | Text Only | Print | Product List | Glossary On
Versions: 1 2 3 4 5 6 7 8 9 10 11 12 13
000
FTUS46 KSTO 281100
TAFSAC
TAF
KSAC 281136Z 2812/0112 14005KT P6SM BKN100 PROB30 2821/0101 36005KT
      P6SM -SHRA BKN060 BKN100
     FM010100 33005KT P6SM SCT100 SCT250=

USA.gov is the U.S. government's official web portal to all federal, state and local government web resources and services.